KFVE 162229Z AUTO 20008KT 3SM -SN BR OVC026 M03/M06 A2957 RMK AO2 SNB06 P0000 T10331056